Flight Track Log - Related Links

Times and Time Zones

All times are in EDT time to prevent confusion due to time zone crossing. See the WIS100 flight status page for this flight to view local times or setup timezone preferences in your user account.

Time Position Orientation Groundspeed Altitude Reporting Facility
EDT Latitude Longitude Course Direction KTS MPH feet Rate Location/Type
Fri 10:07:22 PM 42.9528 -83.5817 162° South 190 219 4,900  Level Cleveland Center
Fri 10:08:41 PM 42.8889 -83.5531 162° South 183 211 4,900 -575 Level Cleveland Center
Fri 10:09:48 PM 42.8289 -83.5275 163° South 207 238 3,500 -1,148 Descending Cleveland Center
Fri 10:10:36 PM 42.7878 -83.5086 161° South 200 230 2,700 -771 Descending Cleveland Center
Fri 10:11:37 PM 42.7383 -83.4864 162° South 182 209 2,100 -328 Descending Cleveland Center
Fri 10:12:44 PM 42.6928 -83.4758 170° South 129 148 2,000 -393 Descending Cleveland Center
Fri 10:13:39 PM 42.6661 -83.4522 147° Southeast 117 135 1,300 53 Descending Cleveland Center
Fri 10:15:00 PM 42.6875 -83.5349 289° West  Level FlightAware Approximate
Fri 10:22:00 PM 42.8185 -83.9523 290° West  Level FlightAware Approximate
Fri 10:23:00 PM 42.8348 -84.0135 290° West  Level FlightAware Approximate
Fri 10:24:00 PM 42.8511 -84.0747 290° West  Level FlightAware Approximate
Fri 10:25:00 PM 42.8674 -84.1359 290° West  Level FlightAware Approximate
Fri 10:26:00 PM 42.8839 -84.1970 290° West  Level FlightAware Approximate
Fri 10:27:00 PM 42.9005 -84.2581 290° West  Level FlightAware Approximate
Fri 10:28:00 PM 42.9170 -84.3193 290° West  Level FlightAware Approximate
Fri 10:29:00 PM 42.9335 -84.3805 290° West  Level FlightAware Approximate
Fri 10:29:51 PM 42.6661 -83.3758 93° East 95 109 2,900  Level Cleveland Center
Fri 10:30:00 PM 42.9499 -84.4417 290° West  Level FlightAware Approximate
Fri 10:30:58 PM 42.6972 -83.3772 358° North 120 138 4,200  Level Cleveland Center
Fri 10:31:00 PM 42.9663 -84.5029 290° West  Level FlightAware Approximate
Fri 10:31:58 PM 42.7261 -83.3956 335° Northwest 115 132 5,400  Level Cleveland Center
Fri 10:32:00 PM 42.9827 -84.5642 290° West  Level FlightAware Approximate
Fri 10:33:00 PM 42.9993 -84.6254 290° West  Level FlightAware Approximate
Fri 10:33:00 PM 42.7170 -83.4615 259° West  Level FlightAware Approximate
Fri 10:34:00 PM 43.0158 -84.6866 290° West  Level FlightAware Approximate
Fri 10:40:00 PM 42.8339 -83.8880 290° West  Level Estimated
Fri 10:41:00 PM 42.8425 -83.9520 280° West  Level FlightAware Approximate
Fri 10:42:00 PM 42.8511 -84.0161 280° West  Level FlightAware Approximate
Fri 10:43:00 PM 42.8596 -84.0802 280° West  Level FlightAware Approximate
Fri 10:44:00 PM 42.8764 -84.1411 290° West  Level Estimated
Fri 10:45:00 PM 42.8920 -84.2027 289° West  Level FlightAware Approximate
Fri 10:46:00 PM 42.9076 -84.2643 289° West  Level FlightAware Approximate
Fri 10:47:00 PM 42.9231 -84.3260 289° West  Level FlightAware Approximate
Fri 10:48:00 PM 42.9386 -84.3876 289° West  Level FlightAware Approximate
Fri 10:49:00 PM 42.9540 -84.4493 289° West  Level FlightAware Approximate
Fri 10:50:00 PM 42.9695 -84.5111 289° West  Level FlightAware Approximate
Fri 10:50:24 PM 43.1131 -84.5922 290° West 195 224 6,000  Level Chicago Center
Fri 10:51:00 PM 42.9861 -84.5722 290° West  Level Estimated
Fri 10:51:26 PM 43.1306 -84.6625 289° West 197 227 6,000  Level Chicago Center
Fri 10:52:00 PM 43.0026 -84.6335 290° West  Level FlightAware Approximate
Fri 10:52:27 PM 43.1467 -84.7308 288° West 193 222 6,000  Level Chicago Center
Fri 10:53:00 PM 43.0190 -84.6948 290° West  Level FlightAware Approximate
Fri 10:53:28 PM 43.1633 -84.8017 288° West 194 223 6,000  Level Chicago Center
Fri 10:54:00 PM 43.0353 -84.7561 290° West  Level FlightAware Approximate
Fri 10:54:29 PM 43.1792 -84.8722 287° West 195 224 6,000  Level Chicago Center
Fri 10:55:00 PM 43.0517 -84.8175 290° West  Level FlightAware Approximate
Fri 10:55:30 PM 43.1964 -84.9414 289° West 193 222 6,000  Level Chicago Center
Fri 10:56:32 PM 43.2131 -85.0111 288° West 193 222 6,000  Level Chicago Center
Fri 10:57:33 PM 43.2331 -85.0794 292° West 194 223 6,000  Level Chicago Center
Fri 10:58:34 PM 43.2492 -85.1511 287° West 195 224 6,000  Level Chicago Center
Fri 10:59:35 PM 43.2669 -85.2350 286° West 193 222 6,000  Level Chicago Center
Fri 11:00:36 PM 43.2842 -85.3044 289° West 194 223 6,000  Level Chicago Center
Fri 11:01:37 PM 43.3025 -85.3728 290° West 193 222 6,000  Level Chicago Center
Fri 11:02:39 PM 43.3211 -85.4422 290° West 195 224 6,000  Level Chicago Center
Fri 11:03:40 PM 43.3428 -85.5108 293° West 197 227 6,000  Level Chicago Center
Fri 11:04:41 PM 43.3575 -85.5806 286° West 193 222 6,000  Level Chicago Center
Fri 11:05:42 PM 43.3719 -85.6517 286° West 194 223 6,000  Level Chicago Center
Fri 11:06:43 PM 43.3903 -85.7214 290° West 195 224 6,000  Level Chicago Center
Fri 11:07:44 PM 43.4092 -85.7922 290° West 197 227 6,000  Level Chicago Center
Fri 11:08:45 PM 43.4267 -85.8778 286° West 197 227 6,000  Level Chicago Center
Fri 11:09:47 PM 43.4414 -85.9486 286° West 194 223 6,000  Level Chicago Center
Fri 11:10:48 PM 43.4564 -86.0200 286° West 196 226 6,000  Level Chicago Center
Fri 11:11:49 PM 43.4739 -86.0900 289° West 195 224 6,000  Level Chicago Center
Fri 11:12:50 PM 43.4892 -86.1578 287° West 189 217 6,000  Level Chicago Center
Fri 11:13:51 PM 43.5056 -86.2247 289° West 185 213 6,000  Level Chicago Center
Fri 11:14:53 PM 43.5214 -86.2936 288° West 189 217 6,000  Level Chicago Center
Fri 11:15:54 PM 43.5350 -86.3625 285° West 187 215 6,000  Level Chicago Center
Fri 11:16:55 PM 43.5486 -86.4319 285° West 188 216 6,000  Level Chicago Center
Fri 11:17:56 PM 43.5656 -86.5131 286° West 185 213 6,000  Level Chicago Center
Fri 11:18:57 PM 43.5811 -86.5800 288° West 184 212 6,000  Level Chicago Center
Fri 11:19:58 PM 43.5969 -86.6494 287° West 189 217 6,000  Level Chicago Center
Fri 11:21:00 PM 43.6147 -86.7183 290° West 189 217 6,000  Level Chicago Center
Fri 11:22:01 PM 43.6261 -86.7869 283° West 187 215 6,000  Level Chicago Center
Fri 11:23:02 PM 43.6364 -86.8597 281° West 189 217 6,000  Level Chicago Center
Fri 11:24:03 PM 43.6478 -86.9308 283° West 190 219 6,000  Level Chicago Center
Fri 11:25:04 PM 43.6619 -87.0008 286° West 191 220 6,000  Level Chicago Center
Fri 11:26:06 PM 43.6800 -87.0681 290° West 189 217 6,000  Level Chicago Center
Fri 11:27:07 PM 43.6972 -87.1375 289° West 192 221 6,000  Level Chicago Center
Fri 11:28:08 PM 43.7192 -87.2219 290° West 194 223 6,000  Level Chicago Center
Fri 11:29:09 PM 43.7394 -87.2894 293° West 192 221 6,000  Level Chicago Center
Fri 11:30:10 PM 43.7558 -87.3644 287° West 192 221 6,000  Level Chicago Center
Fri 11:31:11 PM 43.7692 -87.4361 284° West 191 220 6,000  Level Chicago Center
Fri 11:32:13 PM 43.7806 -87.5083 282° West 192 221 6,000  Level Chicago Center
Fri 11:33:14 PM 43.7928 -87.5792 283° West 191 220 6,000  Level Chicago Center
Fri 11:34:15 PM 43.8081 -87.6503 287° West 192 221 6,000  Level Chicago Center
Fri 11:35:16 PM 43.8269 -87.7192 291° West 190 219 6,000  Level Chicago Center
Fri 11:36:17 PM 43.8442 -87.7892 289° West 191 220 6,000  Level Chicago Center
Fri 11:37:18 PM 43.8589 -87.8592 286° West 191 220 6,000  Level Chicago Center
Fri 11:38:19 PM 43.8750 -87.9269 288° West 188 216 6,000  Level Chicago Center
Fri 11:39:21 PM 43.8936 -88.0075 288° West 188 216 6,000  Level Chicago Center
Fri 11:40:22 PM 43.9092 -88.0747 288° West 187 215 6,000 -197 Level Chicago Center
Fri 11:41:23 PM 43.9247 -88.1439 287° West 187 215 5,600 -590 Descending Chicago Center
Fri 11:42:24 PM 43.9431 -88.2158 290° West 190 219 4,800 -836 Descending Chicago Center
Fri 11:43:25 PM 43.9614 -88.2914 289° West 199 229 3,900 -689 Descending Chicago Center
Fri 11:44:26 PM 43.9772 -88.3678 286° West 201 231 3,400 -492 Descending Chicago Center

Login

Don't have an account? Register now (free) for customized features, flight alerts, and more!